sensor_id;sensor_type;location;lat;lon;timestamp;temperature;humidity
9537;DHT22;4807;48.024;11.726;2022-08-11T00:02:06;13.40;95.30
9537;DHT22;4807;48.024;11.726;2022-08-11T00:05:21;13.00;95.60
9537;DHT22;4807;48.024;11.726;2022-08-11T00:08:30;13.00;95.40
9537;DHT22;4807;48.024;11.726;2022-08-11T00:11:44;13.00;95.70
9537;DHT22;4807;48.024;11.726;2022-08-11T00:14:59;12.90;96.00
9537;DHT22;4807;48.024;11.726;2022-08-11T00:18:08;12.80;96.50
9537;DHT22;4807;48.024;11.726;2022-08-11T00:21:20;12.70;96.50
9537;DHT22;4807;48.024;11.726;2022-08-11T00:24:50;12.70;97.00
9537;DHT22;4807;48.024;11.726;2022-08-11T00:28:25;12.60;97.20
9537;DHT22;4807;48.024;11.726;2022-08-11T00:31:36;12.60;96.40
9537;DHT22;4807;48.024;11.726;2022-08-11T00:34:50;12.50;96.60
9537;DHT22;4807;48.024;11.726;2022-08-11T00:38:23;12.30;96.90
9537;DHT22;4807;48.024;11.726;2022-08-11T00:41:41;12.10;97.60
9537;DHT22;4807;48.024;11.726;2022-08-11T00:45:09;12.10;98.00
9537;DHT22;4807;48.024;11.726;2022-08-11T00:48:25;11.90;98.60
9537;DHT22;4807;48.024;11.726;2022-08-11T00:51:50;11.80;99.10
9537;DHT22;4807;48.024;11.726;2022-08-11T00:55:38;11.70;99.60
9537;DHT22;4807;48.024;11.726;2022-08-11T00:59:26;11.60;99.90
9537;DHT22;4807;48.024;11.726;2022-08-11T01:03:07;11.60;99.90
9537;DHT22;4807;48.024;11.726;2022-08-11T01:06:47;11.60;99.90
9537;DHT22;4807;48.024;11.726;2022-08-11T01:10:31;11.50;99.90
9537;DHT22;4807;48.024;11.726;2022-08-11T01:14:32;11.50;99.90
9537;DHT22;4807;48.024;11.726;2022-08-11T01:18:31;11.70;99.90
9537;DHT22;4807;48.024;11.726;2022-08-11T01:23:05;11.70;99.90
9537;DHT22;4807;48.024;11.726;2022-08-11T01:35:27;11.40;99.90
9537;DHT22;4807;48.024;11.726;2022-08-11T01:47:33;11.20;99.90
9537;DHT22;4807;48.024;11.726;2022-08-11T01:51:24;11.20;99.90
9537;DHT22;4807;48.024;11.726;2022-08-11T01:54:45;11.30;99.90
9537;DHT22;4807;48.024;11.726;2022-08-11T01:58:18;11.30;99.90
9537;DHT22;4807;48.024;11.726;2022-08-11T02:02:21;11.30;99.90
9537;DHT22;4807;48.024;11.726;2022-08-11T02:05:57;11.30;99.90
9537;DHT22;4807;48.024;11.726;2022-08-11T02:09:49;11.10;99.90
9537;DHT22;4807;48.024;11.726;2022-08-11T02:13:39;11.10;99.90
9537;DHT22;4807;48.024;11.726;2022-08-11T02:17:12;10.80;99.90
9537;DHT22;4807;48.024;11.726;2022-08-11T02:20:27;10.80;99.90
9537;DHT22;4807;48.024;11.726;2022-08-11T02:24:03;10.70;99.90
9537;DHT22;4807;48.024;11.726;2022-08-11T02:27:26;10.70;99.90
9537;DHT22;4807;48.024;11.726;2022-08-11T02:31:01;10.70;99.90
9537;DHT22;4807;48.024;11.726;2022-08-11T02:35:00;10.70;99.90
9537;DHT22;4807;48.024;11.726;2022-08-11T02:38:23;10.80;99.90
9537;DHT22;4807;48.024;11.726;2022-08-11T02:41:43;10.80;99.90
9537;DHT22;4807;48.024;11.726;2022-08-11T02:45:47;10.70;99.90
9537;DHT22;4807;48.024;11.726;2022-08-11T02:49:10;10.60;99.90
9537;DHT22;4807;48.024;11.726;2022-08-11T02:52:49;10.60;99.90
9537;DHT22;4807;48.024;11.726;2022-08-11T02:56:10;10.60;99.90
9537;DHT22;4807;48.024;11.726;2022-08-11T02:59:40;10.60;99.90
9537;DHT22;4807;48.024;11.726;2022-08-11T03:03:16;10.70;99.90
9537;DHT22;4807;48.024;11.726;2022-08-11T03:06:35;10.70;99.90
9537;DHT22;4807;48.024;11.726;2022-08-11T03:09:58;10.70;99.90
9537;DHT22;4807;48.024;11.726;2022-08-11T03:13:20;10.60;99.90
9537;DHT22;4807;48.024;11.726;2022-08-11T03:16:59;10.60;99.90
9537;DHT22;4807;48.024;11.726;2022-08-11T03:20:27;10.50;99.90
9537;DHT22;4807;48.024;11.726;2022-08-11T03:23:52;10.40;99.90
9537;DHT22;4807;48.024;11.726;2022-08-11T03:27:10;10.40;99.90
9537;DHT22;4807;48.024;11.726;2022-08-11T03:30:39;10.30;99.90
9537;DHT22;4807;48.024;11.726;2022-08-11T03:33:57;10.30;99.90
9537;DHT22;4807;48.024;11.726;2022-08-11T03:37:30;10.20;99.90
9537;DHT22;4807;48.024;11.726;2022-08-11T03:41:07;10.00;99.90
9537;DHT22;4807;48.024;11.726;2022-08-11T03:45:19;10.30;99.90
9537;DHT22;4807;48.024;11.726;2022-08-11T03:48:41;10.50;99.90
9537;DHT22;4807;48.024;11.726;2022-08-11T03:52:10;10.20;99.90
9537;DHT22;4807;48.024;11.726;2022-08-11T03:55:57;10.50;99.90
9537;DHT22;4807;48.024;11.726;2022-08-11T04:03:43;10.40;99.90
9537;DHT22;4807;48.024;11.726;2022-08-11T04:11:55;10.10;99.90
9537;DHT22;4807;48.024;11.726;2022-08-11T04:16:02;10.10;99.90
9537;DHT22;4807;48.024;11.726;2022-08-11T04:19:43;11.10;99.90
9537;DHT22;4807;48.024;11.726;2022-08-11T04:23:17;10.00;99.90
9537;DHT22;4807;48.024;11.726;2022-08-11T04:27:23;10.10;99.90
9537;DHT22;4807;48.024;11.726;2022-08-11T04:31:01;10.10;99.90
9537;DHT22;4807;48.024;11.726;2022-08-11T04:34:35;10.20;99.90
9537;DHT22;4807;48.024;11.726;2022-08-11T04:38:13;10.30;99.90
9537;DHT22;4807;48.024;11.726;2022-08-11T04:50:16;10.40;99.90
9537;DHT22;4807;48.024;11.726;2022-08-11T04:54:22;10.50;99.90
9537;DHT22;4807;48.024;11.726;2022-08-11T04:58:07;10.50;99.90
9537;DHT22;4807;48.024;11.726;2022-08-11T05:02:03;10.60;99.90
9537;DHT22;4807;48.024;11.726;2022-08-11T05:06:10;10.80;99.90
9537;DHT22;4807;48.024;11.726;2022-08-11T05:13:27;10.90;99.90
9537;DHT22;4807;48.024;11.726;2022-08-11T05:17:14;10.80;99.90
9537;DHT22;4807;48.024;11.726;2022-08-11T05:20:49;10.60;99.90
9537;DHT22;4807;48.024;11.726;2022-08-11T05:24:21;10.60;99.90
9537;DHT22;4807;48.024;11.726;2022-08-11T05:28:08;10.70;99.90
9537;DHT22;4807;48.024;11.726;2022-08-11T05:31:40;10.90;99.90
9537;DHT22;4807;48.024;11.726;2022-08-11T05:35:31;10.90;99.90
9537;DHT22;4807;48.024;11.726;2022-08-11T05:39:15;11.10;99.90
9537;DHT22;4807;48.024;11.726;2022-08-11T05:42:49;11.50;99.90
9537;DHT22;4807;48.024;11.726;2022-08-11T05:46:23;11.90;99.90
9537;DHT22;4807;48.024;11.726;2022-08-11T05:49:53;12.30;99.90
9537;DHT22;4807;48.024;11.726;2022-08-11T05:53:23;12.50;99.90
9537;DHT22;4807;48.024;11.726;2022-08-11T05:56:58;12.90;99.90
9537;DHT22;4807;48.024;11.726;2022-08-11T06:00:10;13.20;99.90
9537;DHT22;4807;48.024;11.726;2022-08-11T06:03:25;13.40;99.90
9537;DHT22;4807;48.024;11.726;2022-08-11T06:06:37;13.80;99.90
9537;DHT22;4807;48.024;11.726;2022-08-11T06:09:54;14.10;99.90
9537;DHT22;4807;48.024;11.726;2022-08-11T06:13:10;14.70;99.90
9537;DHT22;4807;48.024;11.726;2022-08-11T06:16:25;15.30;99.90
9537;DHT22;4807;48.024;11.726;2022-08-11T06:19:38;15.70;99.60
9537;DHT22;4807;48.024;11.726;2022-08-11T06:22:55;16.30;98.40
9537;DHT22;4807;48.024;11.726;2022-08-11T06:26:10;17.30;96.20
9537;DHT22;4807;48.024;11.726;2022-08-11T06:29:22;17.70;94.80
9537;DHT22;4807;48.024;11.726;2022-08-11T06:32:53;18.00;94.40
9537;DHT22;4807;48.024;11.726;2022-08-11T06:36:07;18.80;93.40
9537;DHT22;4807;48.024;11.726;2022-08-11T06:39:28;19.90;91.20
9537;DHT22;4807;48.024;11.726;2022-08-11T06:42:55;21.10;87.00
9537;DHT22;4807;48.024;11.726;2022-08-11T06:46:10;21.80;81.90
9537;DHT22;4807;48.024;11.726;2022-08-11T06:49:37;22.10;81.50
9537;DHT22;4807;48.024;11.726;2022-08-11T06:53:09;23.10;75.60
9537;DHT22;4807;48.024;11.726;2022-08-11T06:56:22;23.20;74.40
9537;DHT22;4807;48.024;11.726;2022-08-11T06:59:52;22.60;73.70
9537;DHT22;4807;48.024;11.726;2022-08-11T07:03:38;21.70;76.80
9537;DHT22;4807;48.024;11.726;2022-08-11T07:11:54;20.80;80.80
9537;DHT22;4807;48.024;11.726;2022-08-11T07:15:31;21.30;78.40
9537;DHT22;4807;48.024;11.726;2022-08-11T07:19:15;21.80;77.00
9537;DHT22;4807;48.024;11.726;2022-08-11T07:22:49;22.50;74.20
9537;DHT22;4807;48.024;11.726;2022-08-11T07:26:22;23.00;73.20
9537;DHT22;4807;48.024;11.726;2022-08-11T07:29:51;23.50;73.00
9537;DHT22;4807;48.024;11.726;2022-08-11T07:33:04;24.00;70.30
9537;DHT22;4807;48.024;11.726;2022-08-11T07:36:15;24.40;68.60
9537;DHT22;4807;48.024;11.726;2022-08-11T07:39:31;24.50;68.20
9537;DHT22;4807;48.024;11.726;2022-08-11T07:42:42;24.90;67.00
9537;DHT22;4807;48.024;11.726;2022-08-11T07:45:54;25.10;67.20
9537;DHT22;4807;48.024;11.726;2022-08-11T07:49:22;25.60;64.40
9537;DHT22;4807;48.024;11.726;2022-08-11T07:52:49;25.30;66.00
9537;DHT22;4807;48.024;11.726;2022-08-11T07:56:00;26.40;63.90
9537;DHT22;4807;48.024;11.726;2022-08-11T07:59:12;25.40;64.30
9537;DHT22;4807;48.024;11.726;2022-08-11T08:02:58;24.30;69.40
9537;DHT22;4807;48.024;11.726;2022-08-11T08:06:28;24.30;69.00
9537;DHT22;4807;48.024;11.726;2022-08-11T08:09:58;24.80;67.60
9537;DHT22;4807;48.024;11.726;2022-08-11T08:13:24;25.80;64.70
9537;DHT22;4807;48.024;11.726;2022-08-11T08:16:51;25.10;66.00
9537;DHT22;4807;48.024;11.726;2022-08-11T08:20:19;24.40;67.50
9537;DHT22;4807;48.024;11.726;2022-08-11T08:23:32;24.40;67.20
9537;DHT22;4807;48.024;11.726;2022-08-11T08:26:42;24.00;69.10
9537;DHT22;4807;48.024;11.726;2022-08-11T08:30:07;25.00;67.90
9537;DHT22;4807;48.024;11.726;2022-08-11T08:33:34;25.20;65.00
9537;DHT22;4807;48.024;11.726;2022-08-11T08:36:49;25.40;66.00
9537;DHT22;4807;48.024;11.726;2022-08-11T08:40:00;26.10;63.20
9537;DHT22;4807;48.024;11.726;2022-08-11T08:43:14;26.50;62.10
9537;DHT22;4807;48.024;11.726;2022-08-11T08:46:28;26.70;60.90
9537;DHT22;4807;48.024;11.726;2022-08-11T08:49:45;27.00;61.00
9537;DHT22;4807;48.024;11.726;2022-08-11T08:53:00;26.80;60.30
9537;DHT22;4807;48.024;11.726;2022-08-11T08:56:13;26.90;60.20
9537;DHT22;4807;48.024;11.726;2022-08-11T08:59:26;27.20;59.70
9537;DHT22;4807;48.024;11.726;2022-08-11T09:02:55;27.50;59.30
9537;DHT22;4807;48.024;11.726;2022-08-11T09:06:23;27.60;58.40
9537;DHT22;4807;48.024;11.726;2022-08-11T09:09:34;27.80;57.80
9537;DHT22;4807;48.024;11.726;2022-08-11T09:12:46;26.80;60.70
9537;DHT22;4807;48.024;11.726;2022-08-11T09:15:55;26.90;59.90
9537;DHT22;4807;48.024;11.726;2022-08-11T09:19:04;27.00;60.00
9537;DHT22;4807;48.024;11.726;2022-08-11T09:22:18;26.90;60.50
9537;DHT22;4807;48.024;11.726;2022-08-11T09:25:48;26.70;59.30
9537;DHT22;4807;48.024;11.726;2022-08-11T09:29:16;26.40;61.10
9537;DHT22;4807;48.024;11.726;2022-08-11T09:32:25;25.90;61.40
9537;DHT22;4807;48.024;11.726;2022-08-11T09:35:38;25.70;61.10
9537;DHT22;4807;48.024;11.726;2022-08-11T09:38:52;25.30;63.00
9537;DHT22;4807;48.024;11.726;2022-08-11T09:42:20;25.30;63.30
9537;DHT22;4807;48.024;11.726;2022-08-11T09:45:52;25.20;63.50
9537;DHT22;4807;48.024;11.726;2022-08-11T09:49:03;25.00;62.30
9537;DHT22;4807;48.024;11.726;2022-08-11T09:52:13;25.00;62.70
9537;DHT22;4807;48.024;11.726;2022-08-11T09:55:23;25.10;62.80
9537;DHT22;4807;48.024;11.726;2022-08-11T09:58:32;25.20;63.60
9537;DHT22;4807;48.024;11.726;2022-08-11T10:01:55;24.90;63.30
9537;DHT22;4807;48.024;11.726;2022-08-11T10:05:06;24.60;62.80
9537;DHT22;4807;48.024;11.726;2022-08-11T10:08:35;24.30;64.20
9537;DHT22;4807;48.024;11.726;2022-08-11T10:11:46;24.60;66.00
9537;DHT22;4807;48.024;11.726;2022-08-11T10:15:07;25.30;62.10
9537;DHT22;4807;48.024;11.726;2022-08-11T10:18:40;26.20;61.60
9537;DHT22;4807;48.024;11.726;2022-08-11T10:21:55;25.50;61.20
9537;DHT22;4807;48.024;11.726;2022-08-11T10:25:22;25.00;62.30
9537;DHT22;4807;48.024;11.726;2022-08-11T10:28:48;25.10;64.10
9537;DHT22;4807;48.024;11.726;2022-08-11T10:32:21;25.00;62.70
9537;DHT22;4807;48.024;11.726;2022-08-11T10:36:06;25.20;61.30
9537;DHT22;4807;48.024;11.726;2022-08-11T10:39:23;25.40;61.90
9537;DHT22;4807;48.024;11.726;2022-08-11T10:42:34;25.30;62.10
9537;DHT22;4807;48.024;11.726;2022-08-11T10:46:06;25.30;61.40
9537;DHT22;4807;48.024;11.726;2022-08-11T10:49:36;25.30;62.60
9537;DHT22;4807;48.024;11.726;2022-08-11T10:52:49;25.50;61.50
9537;DHT22;4807;48.024;11.726;2022-08-11T10:56:17;25.70;60.00
9537;DHT22;4807;48.024;11.726;2022-08-11T10:59:44;25.40;60.40
9537;DHT22;4807;48.024;11.726;2022-08-11T11:02:54;25.30;61.30
9537;DHT22;4807;48.024;11.726;2022-08-11T11:06:28;25.50;62.20
9537;DHT22;4807;48.024;11.726;2022-08-11T11:09:49;25.90;60.70
9537;DHT22;4807;48.024;11.726;2022-08-11T11:13:01;25.80;60.40
9537;DHT22;4807;48.024;11.726;2022-08-11T11:16:29;25.90;61.10
9537;DHT22;4807;48.024;11.726;2022-08-11T11:27:33;25.90;58.80
9537;DHT22;4807;48.024;11.726;2022-08-11T11:31:05;25.50;59.60
9537;DHT22;4807;48.024;11.726;2022-08-11T11:34:36;25.50;60.20
9537;DHT22;4807;48.024;11.726;2022-08-11T11:37:59;25.60;59.70
9537;DHT22;4807;48.024;11.726;2022-08-11T11:41:12;25.90;59.60
9537;DHT22;4807;48.024;11.726;2022-08-11T11:44:37;25.60;59.20
9537;DHT22;4807;48.024;11.726;2022-08-11T11:47:48;25.30;59.10
9537;DHT22;4807;48.024;11.726;2022-08-11T11:50:59;25.30;59.90
9537;DHT22;4807;48.024;11.726;2022-08-11T11:54:08;25.40;60.50
9537;DHT22;4807;48.024;11.726;2022-08-11T11:57:19;25.70;59.60
9537;DHT22;4807;48.024;11.726;2022-08-11T12:01:06;26.00;58.50
9537;DHT22;4807;48.024;11.726;2022-08-11T12:04:26;26.00;58.20
9537;DHT22;4807;48.024;11.726;2022-08-11T12:07:36;26.20;58.40
9537;DHT22;4807;48.024;11.726;2022-08-11T12:11:20;26.30;56.70
9537;DHT22;4807;48.024;11.726;2022-08-11T12:14:50;26.20;57.00
9537;DHT22;4807;48.024;11.726;2022-08-11T12:18:01;26.10;57.00
9537;DHT22;4807;48.024;11.726;2022-08-11T12:21:13;26.00;57.30
9537;DHT22;4807;48.024;11.726;2022-08-11T12:24:23;26.00;57.30
9537;DHT22;4807;48.024;11.726;2022-08-11T12:27:49;26.00;57.00
9537;DHT22;4807;48.024;11.726;2022-08-11T12:31:00;26.00;57.80
9537;DHT22;4807;48.024;11.726;2022-08-11T12:34:14;26.10;57.60
9537;DHT22;4807;48.024;11.726;2022-08-11T12:37:26;26.20;57.20
9537;DHT22;4807;48.024;11.726;2022-08-11T12:40:38;26.40;56.80
9537;DHT22;4807;48.024;11.726;2022-08-11T12:44:24;26.50;56.10
9537;DHT22;4807;48.024;11.726;2022-08-11T12:48:00;26.40;55.70
9537;DHT22;4807;48.024;11.726;2022-08-11T12:51:53;26.20;57.00
9537;DHT22;4807;48.024;11.726;2022-08-11T12:55:22;26.30;55.70
9537;DHT22;4807;48.024;11.726;2022-08-11T12:58:48;26.20;56.10
9537;DHT22;4807;48.024;11.726;2022-08-11T13:01:59;26.40;56.10
9537;DHT22;4807;48.024;11.726;2022-08-11T13:05:26;26.30;56.70
9537;DHT22;4807;48.024;11.726;2022-08-11T13:08:47;26.50;56.20
9537;DHT22;4807;48.024;11.726;2022-08-11T13:11:56;26.90;55.10
9537;DHT22;4807;48.024;11.726;2022-08-11T13:15:24;27.00;54.20
9537;DHT22;4807;48.024;11.726;2022-08-11T13:18:33;27.00;54.50
9537;DHT22;4807;48.024;11.726;2022-08-11T13:21:42;26.90;53.80
9537;DHT22;4807;48.024;11.726;2022-08-11T13:24:53;26.80;54.00
9537;DHT22;4807;48.024;11.726;2022-08-11T13:28:04;26.70;54.70
9537;DHT22;4807;48.024;11.726;2022-08-11T13:31:13;26.70;54.70
9537;DHT22;4807;48.024;11.726;2022-08-11T13:34:23;26.60;54.60
9537;DHT22;4807;48.024;11.726;2022-08-11T13:37:34;26.60;54.50
9537;DHT22;4807;48.024;11.726;2022-08-11T13:41:04;26.60;54.20
9537;DHT22;4807;48.024;11.726;2022-08-11T13:44:35;26.60;54.60
9537;DHT22;4807;48.024;11.726;2022-08-11T13:47:45;26.40;53.80
9537;DHT22;4807;48.024;11.726;2022-08-11T13:50:56;26.70;54.70
9537;DHT22;4807;48.024;11.726;2022-08-11T13:54:25;27.10;53.10
9537;DHT22;4807;48.024;11.726;2022-08-11T13:57:38;27.10;52.90
9537;DHT22;4807;48.024;11.726;2022-08-11T14:01:08;27.10;53.40
9537;DHT22;4807;48.024;11.726;2022-08-11T14:04:40;26.90;53.50
9537;DHT22;4807;48.024;11.726;2022-08-11T14:07:52;26.80;53.30
9537;DHT22;4807;48.024;11.726;2022-08-11T14:11:06;26.90;52.60
9537;DHT22;4807;48.024;11.726;2022-08-11T14:14:59;26.90;52.60
9537;DHT22;4807;48.024;11.726;2022-08-11T14:18:18;27.00;53.70
9537;DHT22;4807;48.024;11.726;2022-08-11T14:21:33;27.10;52.10
9537;DHT22;4807;48.024;11.726;2022-08-11T14:25:01;26.70;52.30
9537;DHT22;4807;48.024;11.726;2022-08-11T14:28:10;26.70;52.50
9537;DHT22;4807;48.024;11.726;2022-08-11T14:31:45;26.30;52.50
9537;DHT22;4807;48.024;11.726;2022-08-11T14:34:57;26.40;52.70
9537;DHT22;4807;48.024;11.726;2022-08-11T14:38:06;26.60;52.30
9537;DHT22;4807;48.024;11.726;2022-08-11T14:41:17;26.60;52.00
9537;DHT22;4807;48.024;11.726;2022-08-11T14:45:05;26.70;51.70
9537;DHT22;4807;48.024;11.726;2022-08-11T14:48:57;26.60;52.40
9537;DHT22;4807;48.024;11.726;2022-08-11T14:52:09;26.30;51.30
9537;DHT22;4807;48.024;11.726;2022-08-11T14:55:21;26.10;51.90
9537;DHT22;4807;48.024;11.726;2022-08-11T14:58:48;26.20;53.20
9537;DHT22;4807;48.024;11.726;2022-08-11T15:01:59;26.30;52.00
9537;DHT22;4807;48.024;11.726;2022-08-11T15:05:28;26.30;51.30
9537;DHT22;4807;48.024;11.726;2022-08-11T15:08:38;26.40;51.40
9537;DHT22;4807;48.024;11.726;2022-08-11T15:12:03;26.50;50.80
9537;DHT22;4807;48.024;11.726;2022-08-11T15:15:36;26.40;50.50
9537;DHT22;4807;48.024;11.726;2022-08-11T15:19:03;26.60;51.00
9537;DHT22;4807;48.024;11.726;2022-08-11T15:22:14;26.80;50.20
9537;DHT22;4807;48.024;11.726;2022-08-11T15:25:42;26.90;50.60
9537;DHT22;4807;48.024;11.726;2022-08-11T15:28:55;26.80;49.70
9537;DHT22;4807;48.024;11.726;2022-08-11T15:32:21;26.80;50.70
9537;DHT22;4807;48.024;11.726;2022-08-11T15:35:50;26.90;50.30
9537;DHT22;4807;48.024;11.726;2022-08-11T15:39:31;26.80;50.30
9537;DHT22;4807;48.024;11.726;2022-08-11T15:42:46;26.70;50.50
9537;DHT22;4807;48.024;11.726;2022-08-11T15:46:21;26.60;50.80
9537;DHT22;4807;48.024;11.726;2022-08-11T15:49:39;26.50;50.80
9537;DHT22;4807;48.024;11.726;2022-08-11T15:53:16;25.90;51.00
9537;DHT22;4807;48.024;11.726;2022-08-11T15:56:31;25.90;51.50
9537;DHT22;4807;48.024;11.726;2022-08-11T15:59:42;25.70;51.40
9537;DHT22;4807;48.024;11.726;2022-08-11T16:03:18;25.60;50.80
9537;DHT22;4807;48.024;11.726;2022-08-11T16:07:09;25.40;51.20
9537;DHT22;4807;48.024;11.726;2022-08-11T16:10:19;25.40;52.00
9537;DHT22;4807;48.024;11.726;2022-08-11T16:13:32;25.40;52.20
9537;DHT22;4807;48.024;11.726;2022-08-11T16:17:03;25.40;51.50
9537;DHT22;4807;48.024;11.726;2022-08-11T16:20:16;25.50;50.20
9537;DHT22;4807;48.024;11.726;2022-08-11T16:23:27;25.50;49.80
9537;DHT22;4807;48.024;11.726;2022-08-11T16:26:40;25.40;50.30
9537;DHT22;4807;48.024;11.726;2022-08-11T16:30:12;25.40;49.70
9537;DHT22;4807;48.024;11.726;2022-08-11T16:33:22;25.20;49.70
9537;DHT22;4807;48.024;11.726;2022-08-11T16:36:53;25.10;50.20
9537;DHT22;4807;48.024;11.726;2022-08-11T16:40:21;25.10;50.80
9537;DHT22;4807;48.024;11.726;2022-08-11T16:43:32;25.10;50.50
9537;DHT22;4807;48.024;11.726;2022-08-11T16:47:05;25.10;51.30
9537;DHT22;4807;48.024;11.726;2022-08-11T16:50:16;25.00;52.30
9537;DHT22;4807;48.024;11.726;2022-08-11T16:53:27;25.00;53.60
9537;DHT22;4807;48.024;11.726;2022-08-11T16:56:58;24.90;53.60
9537;DHT22;4807;48.024;11.726;2022-08-11T17:00:30;24.90;53.50
9537;DHT22;4807;48.024;11.726;2022-08-11T17:03:51;25.70;52.80
9537;DHT22;4807;48.024;11.726;2022-08-11T17:07:24;27.40;50.30
9537;DHT22;4807;48.024;11.726;2022-08-11T17:10:56;28.20;48.90
9537;DHT22;4807;48.024;11.726;2022-08-11T17:14:27;28.60;47.50
9537;DHT22;4807;48.024;11.726;2022-08-11T17:17:42;28.50;47.60
9537;DHT22;4807;48.024;11.726;2022-08-11T17:20:53;27.70;48.40
9537;DHT22;4807;48.024;11.726;2022-08-11T17:24:05;26.40;50.70
9537;DHT22;4807;48.024;11.726;2022-08-11T17:27:17;25.30;52.50
9537;DHT22;4807;48.024;11.726;2022-08-11T17:30:28;24.70;53.70
9537;DHT22;4807;48.024;11.726;2022-08-11T17:33:54;24.40;54.50
9537;DHT22;4807;48.024;11.726;2022-08-11T17:37:24;24.10;54.70
9537;DHT22;4807;48.024;11.726;2022-08-11T17:40:36;23.80;55.50
9537;DHT22;4807;48.024;11.726;2022-08-11T17:44:06;23.60;55.40
9537;DHT22;4807;48.024;11.726;2022-08-11T17:47:33;23.50;55.70
9537;DHT22;4807;48.024;11.726;2022-08-11T17:51:02;23.20;55.70
9537;DHT22;4807;48.024;11.726;2022-08-11T17:54:14;23.10;56.10
9537;DHT22;4807;48.024;11.726;2022-08-11T17:57:42;22.90;56.90
9537;DHT22;4807;48.024;11.726;2022-08-11T18:01:10;22.80;56.50
9537;DHT22;4807;48.024;11.726;2022-08-11T18:04:20;22.60;56.90
9537;DHT22;4807;48.024;11.726;2022-08-11T18:07:30;22.50;56.80
9537;DHT22;4807;48.024;11.726;2022-08-11T18:11:01;22.40;57.50
9537;DHT22;4807;48.024;11.726;2022-08-11T18:14:49;22.30;57.70
9537;DHT22;4807;48.024;11.726;2022-08-11T18:18:18;22.10;58.00
9537;DHT22;4807;48.024;11.726;2022-08-11T18:21:45;22.00;58.40
9537;DHT22;4807;48.024;11.726;2022-08-11T18:25:25;21.80;58.70
9537;DHT22;4807;48.024;11.726;2022-08-11T18:28:55;21.50;59.50
9537;DHT22;4807;48.024;11.726;2022-08-11T18:32:23;21.50;59.50
9537;DHT22;4807;48.024;11.726;2022-08-11T18:35:58;21.20;59.40
9537;DHT22;4807;48.024;11.726;2022-08-11T18:39:28;20.90;59.90
9537;DHT22;4807;48.024;11.726;2022-08-11T18:43:05;20.90;60.40
9537;DHT22;4807;48.024;11.726;2022-08-11T18:46:36;19.90;60.70
9537;DHT22;4807;48.024;11.726;2022-08-11T18:50:12;20.60;61.20
9537;DHT22;4807;48.024;11.726;2022-08-11T18:53:48;20.60;61.40
9537;DHT22;4807;48.024;11.726;2022-08-11T18:57:17;20.60;61.40
9537;DHT22;4807;48.024;11.726;2022-08-11T19:01:01;20.40;61.40
9537;DHT22;4807;48.024;11.726;2022-08-11T19:04:32;20.30;62.70
9537;DHT22;4807;48.024;11.726;2022-08-11T19:08:00;20.10;62.80
9537;DHT22;4807;48.024;11.726;2022-08-11T19:11:28;20.00;62.60
9537;DHT22;4807;48.024;11.726;2022-08-11T19:14:57;20.00;63.40
9537;DHT22;4807;48.024;11.726;2022-08-11T19:18:25;19.80;64.40
9537;DHT22;4807;48.024;11.726;2022-08-11T19:21:56;19.60;64.30
9537;DHT22;4807;48.024;11.726;2022-08-11T19:25:26;19.50;64.30
9537;DHT22;4807;48.024;11.726;2022-08-11T19:28:56;19.20;65.20
9537;DHT22;4807;48.024;11.726;2022-08-11T19:32:44;19.00;66.60
9537;DHT22;4807;48.024;11.726;2022-08-11T19:36:12;18.80;66.10
9537;DHT22;4807;48.024;11.726;2022-08-11T19:39:41;18.80;66.70
9537;DHT22;4807;48.024;11.726;2022-08-11T19:43:10;18.70;66.90
9537;DHT22;4807;48.024;11.726;2022-08-11T19:46:38;18.50;68.00
9537;DHT22;4807;48.024;11.726;2022-08-11T19:50:13;18.40;69.00
9537;DHT22;4807;48.024;11.726;2022-08-11T19:53:44;18.20;69.50
9537;DHT22;4807;48.024;11.726;2022-08-11T19:57:13;18.10;69.00
9537;DHT22;4807;48.024;11.726;2022-08-11T20:00:45;18.00;69.80
9537;DHT22;4807;48.024;11.726;2022-08-11T20:04:12;18.00;70.70
9537;DHT22;4807;48.024;11.726;2022-08-11T20:07:39;18.00;70.60
9537;DHT22;4807;48.024;11.726;2022-08-11T20:11:06;18.00;70.60
9537;DHT22;4807;48.024;11.726;2022-08-11T20:14:36;17.90;71.30
9537;DHT22;4807;48.024;11.726;2022-08-11T20:18:06;17.90;71.20
9537;DHT22;4807;48.024;11.726;2022-08-11T20:21:36;17.80;71.20
9537;DHT22;4807;48.024;11.726;2022-08-11T20:25:08;17.70;71.10
9537;DHT22;4807;48.024;11.726;2022-08-11T20:28:36;17.80;70.20
9537;DHT22;4807;48.024;11.726;2022-08-11T20:32:06;17.70;70.10
9537;DHT22;4807;48.024;11.726;2022-08-11T20:35:33;17.70;69.30
9537;DHT22;4807;48.024;11.726;2022-08-11T20:39:02;17.70;68.30
9537;DHT22;4807;48.024;11.726;2022-08-11T20:42:29;18.10;67.40
9537;DHT22;4807;48.024;11.726;2022-08-11T20:45:59;18.30;67.00
9537;DHT22;4807;48.024;11.726;2022-08-11T20:49:30;18.30;67.00
9537;DHT22;4807;48.024;11.726;2022-08-11T20:53:04;18.20;66.90
9537;DHT22;4807;48.024;11.726;2022-08-11T20:56:34;17.50;66.10
9537;DHT22;4807;48.024;11.726;2022-08-11T21:00:04;18.40;67.10
9537;DHT22;4807;48.024;11.726;2022-08-11T21:03:45;18.30;67.00
9537;DHT22;4807;48.024;11.726;2022-08-11T21:07:14;18.20;67.10
9537;DHT22;4807;48.024;11.726;2022-08-11T21:10:46;18.10;67.90
9537;DHT22;4807;48.024;11.726;2022-08-11T21:14:14;18.00;67.60
9537;DHT22;4807;48.024;11.726;2022-08-11T21:17:41;18.10;67.70
9537;DHT22;4807;48.024;11.726;2022-08-11T21:21:14;18.10;68.60
9537;DHT22;4807;48.024;11.726;2022-08-11T21:24:55;18.10;68.70
9537;DHT22;4807;48.024;11.726;2022-08-11T21:28:22;17.90;68.60
9537;DHT22;4807;48.024;11.726;2022-08-11T21:31:51;17.90;69.30
9537;DHT22;4807;48.024;11.726;2022-08-11T21:35:20;17.80;70.30
9537;DHT22;4807;48.024;11.726;2022-08-11T21:38:51;17.50;71.10
9537;DHT22;4807;48.024;11.726;2022-08-11T21:42:20;17.40;71.80
9537;DHT22;4807;48.024;11.726;2022-08-11T21:45:48;17.20;72.70
9537;DHT22;4807;48.024;11.726;2022-08-11T21:49:17;17.30;72.30
9537;DHT22;4807;48.024;11.726;2022-08-11T21:52:46;17.10;72.90
9537;DHT22;4807;48.024;11.726;2022-08-11T21:56:14;17.30;72.60
9537;DHT22;4807;48.024;11.726;2022-08-11T21:59:47;17.30;72.80
9537;DHT22;4807;48.024;11.726;2022-08-11T22:03:19;17.20;72.80
9537;DHT22;4807;48.024;11.726;2022-08-11T22:06:56;17.20;72.70
9537;DHT22;4807;48.024;11.726;2022-08-11T22:10:24;17.20;72.60
9537;DHT22;4807;48.024;11.726;2022-08-11T22:13:51;17.20;72.90
9537;DHT22;4807;48.024;11.726;2022-08-11T22:17:18;17.10;73.30
9537;DHT22;4807;48.024;11.726;2022-08-11T22:20:44;17.10;72.80
9537;DHT22;4807;48.024;11.726;2022-08-11T22:24:11;17.10;73.70
9537;DHT22;4807;48.024;11.726;2022-08-11T22:27:38;17.00;74.40
9537;DHT22;4807;48.024;11.726;2022-08-11T22:31:05;16.80;74.80
9537;DHT22;4807;48.024;11.726;2022-08-11T22:34:34;16.70;75.40
9537;DHT22;4807;48.024;11.726;2022-08-11T22:38:02;16.50;76.50
9537;DHT22;4807;48.024;11.726;2022-08-11T22:41:30;16.30;78.20
9537;DHT22;4807;48.024;11.726;2022-08-11T22:44:57;16.10;78.50
9537;DHT22;4807;48.024;11.726;2022-08-11T22:48:25;16.00;79.10
9537;DHT22;4807;48.024;11.726;2022-08-11T22:51:56;15.80;79.00
9537;DHT22;4807;48.024;11.726;2022-08-11T22:55:25;15.70;79.60